sensor_id;sensor_type;location;lat;lon;timestamp;P1;durP1;ratioP1;P2;durP2;ratioP2
18875;SDS011;9570;50.854;13.778;2023-08-30T00:02:04;1.50;;;1.40;;
18875;SDS011;9570;50.854;13.778;2023-08-30T00:04:30;1.50;;;1.40;;
18875;SDS011;9570;50.854;13.778;2023-08-30T00:06:55;1.40;;;1.30;;
18875;SDS011;9570;50.854;13.778;2023-08-30T00:09:21;1.20;;;1.10;;
18875;SDS011;9570;50.854;13.778;2023-08-30T00:11:46;1.20;;;1.10;;
18875;SDS011;9570;50.854;13.778;2023-08-30T00:14:12;1.30;;;1.20;;
18875;SDS011;9570;50.854;13.778;2023-08-30T00:16:37;2.20;;;1.27;;
18875;SDS011;9570;50.854;13.778;2023-08-30T00:19:03;2.07;;;1.10;;
18875;SDS011;9570;50.854;13.778;2023-08-30T00:21:29;1.03;;;1.03;;
18875;SDS011;9570;50.854;13.778;2023-08-30T00:23:54;1.40;;;1.30;;
18875;SDS011;9570;50.854;13.778;2023-08-30T00:26:20;1.43;;;1.30;;
18875;SDS011;9570;50.854;13.778;2023-08-30T00:28:45;1.30;;;1.20;;
18875;SDS011;9570;50.854;13.778;2023-08-30T00:31:11;1.37;;;1.27;;
18875;SDS011;9570;50.854;13.778;2023-08-30T00:33:36;2.17;;;1.30;;
18875;SDS011;9570;50.854;13.778;2023-08-30T00:36:02;3.33;;;1.37;;
18875;SDS011;9570;50.854;13.778;2023-08-30T00:38:28;2.03;;;1.40;;
18875;SDS011;9570;50.854;13.778;2023-08-30T00:40:54;3.03;;;1.50;;
18875;SDS011;9570;50.854;13.778;2023-08-30T00:43:20;1.30;;;1.20;;
18875;SDS011;9570;50.854;13.778;2023-08-30T00:45:46;2.73;;;1.40;;
18875;SDS011;9570;50.854;13.778;2023-08-30T00:48:13;1.40;;;1.30;;
18875;SDS011;9570;50.854;13.778;2023-08-30T00:50:40;1.80;;;1.70;;
18875;SDS011;9570;50.854;13.778;2023-08-30T00:53:07;1.57;;;1.47;;
18875;SDS011;9570;50.854;13.778;2023-08-30T00:55:36;2.43;;;1.50;;
18875;SDS011;9570;50.854;13.778;2023-08-30T00:58:02;1.60;;;1.50;;
18875;SDS011;9570;50.854;13.778;2023-08-30T01:00:31;1.97;;;1.60;;
18875;SDS011;9570;50.854;13.778;2023-08-30T01:02:58;4.03;;;1.67;;
18875;SDS011;9570;50.854;13.778;2023-08-30T01:05:23;4.87;;;1.50;;
18875;SDS011;9570;50.854;13.778;2023-08-30T01:07:49;1.60;;;1.50;;
18875;SDS011;9570;50.854;13.778;2023-08-30T01:10:16;1.90;;;1.40;;
18875;SDS011;9570;50.854;13.778;2023-08-30T01:12:43;3.93;;;1.57;;
18875;SDS011;9570;50.854;13.778;2023-08-30T01:15:22;1.60;;;1.50;;
18875;SDS011;9570;50.854;13.778;2023-08-30T01:17:51;1.87;;;1.60;;
18875;SDS011;9570;50.854;13.778;2023-08-30T01:20:18;3.30;;;1.57;;
18875;SDS011;9570;50.854;13.778;2023-08-30T01:25:43;5.17;;;1.70;;
18875;SDS011;9570;50.854;13.778;2023-08-30T01:28:15;6.30;;;1.90;;
18875;SDS011;9570;50.854;13.778;2023-08-30T01:30:44;1.83;;;1.67;;
18875;SDS011;9570;50.854;13.778;2023-08-30T01:33:10;1.60;;;1.50;;
18875;SDS011;9570;50.854;13.778;2023-08-30T01:35:39;3.27;;;2.10;;
18875;SDS011;9570;50.854;13.778;2023-08-30T01:38:06;2.13;;;1.80;;
18875;SDS011;9570;50.854;13.778;2023-08-30T01:40:36;2.30;;;2.00;;
18875;SDS011;9570;50.854;13.778;2023-08-30T01:43:04;2.57;;;2.10;;
18875;SDS011;9570;50.854;13.778;2023-08-30T01:45:33;3.03;;;2.10;;
18875;SDS011;9570;50.854;13.778;2023-08-30T01:48:00;4.77;;;2.37;;
18875;SDS011;9570;50.854;13.778;2023-08-30T01:50:27;2.40;;;2.13;;
18875;SDS011;9570;50.854;13.778;2023-08-30T01:52:53;2.60;;;2.40;;
18875;SDS011;9570;50.854;13.778;2023-08-30T01:55:20;2.90;;;2.53;;
18875;SDS011;9570;50.854;13.778;2023-08-30T01:57:47;3.70;;;2.30;;
18875;SDS011;9570;50.854;13.778;2023-08-30T02:00:13;2.40;;;2.20;;
18875;SDS011;9570;50.854;13.778;2023-08-30T02:02:39;2.63;;;2.33;;
18875;SDS011;9570;50.854;13.778;2023-08-30T02:05:05;3.73;;;2.60;;
18875;SDS011;9570;50.854;13.778;2023-08-30T02:07:38;2.30;;;2.10;;
18875;SDS011;9570;50.854;13.778;2023-08-30T02:10:11;5.83;;;2.80;;
18875;SDS011;9570;50.854;13.778;2023-08-30T02:12:49;2.90;;;2.53;;
18875;SDS011;9570;50.854;13.778;2023-08-30T02:15:17;2.90;;;2.60;;
18875;SDS011;9570;50.854;13.778;2023-08-30T02:17:43;3.60;;;3.30;;
18875;SDS011;9570;50.854;13.778;2023-08-30T02:20:09;5.13;;;3.33;;
18875;SDS011;9570;50.854;13.778;2023-08-30T02:22:35;6.73;;;3.20;;
18875;SDS011;9570;50.854;13.778;2023-08-30T02:25:01;4.30;;;3.80;;
18875;SDS011;9570;50.854;13.778;2023-08-30T02:27:33;5.63;;;3.53;;
18875;SDS011;9570;50.854;13.778;2023-08-30T02:29:59;5.93;;;3.50;;
18875;SDS011;9570;50.854;13.778;2023-08-30T02:32:25;4.30;;;4.00;;
18875;SDS011;9570;50.854;13.778;2023-08-30T02:34:51;5.73;;;4.17;;
18875;SDS011;9570;50.854;13.778;2023-08-30T02:37:17;4.37;;;4.07;;
18875;SDS011;9570;50.854;13.778;2023-08-30T02:39:43;5.70;;;4.40;;
18875;SDS011;9570;50.854;13.778;2023-08-30T02:42:09;5.70;;;3.63;;
18875;SDS011;9570;50.854;13.778;2023-08-30T02:44:35;4.23;;;3.90;;
18875;SDS011;9570;50.854;13.778;2023-08-30T02:47:00;4.57;;;3.87;;
18875;SDS011;9570;50.854;13.778;2023-08-30T02:49:26;3.90;;;3.57;;
18875;SDS011;9570;50.854;13.778;2023-08-30T02:51:52;4.10;;;3.60;;
18875;SDS011;9570;50.854;13.778;2023-08-30T02:54:17;6.70;;;4.13;;
18875;SDS011;9570;50.854;13.778;2023-08-30T02:56:43;4.10;;;3.47;;
18875;SDS011;9570;50.854;13.778;2023-08-30T02:59:09;5.23;;;3.90;;
18875;SDS011;9570;50.854;13.778;2023-08-30T03:01:35;4.77;;;4.07;;
18875;SDS011;9570;50.854;13.778;2023-08-30T03:04:02;5.03;;;3.90;;
18875;SDS011;9570;50.854;13.778;2023-08-30T03:06:29;6.83;;;3.80;;
18875;SDS011;9570;50.854;13.778;2023-08-30T03:08:54;5.90;;;3.87;;
18875;SDS011;9570;50.854;13.778;2023-08-30T03:11:20;7.03;;;3.97;;
18875;SDS011;9570;50.854;13.778;2023-08-30T03:13:45;3.80;;;3.50;;
18875;SDS011;9570;50.854;13.778;2023-08-30T03:16:14;3.90;;;3.50;;
18875;SDS011;9570;50.854;13.778;2023-08-30T03:18:40;3.90;;;3.33;;
18875;SDS011;9570;50.854;13.778;2023-08-30T03:21:07;4.43;;;4.03;;
18875;SDS011;9570;50.854;13.778;2023-08-30T03:23:33;3.83;;;3.53;;
18875;SDS011;9570;50.854;13.778;2023-08-30T03:26:06;4.07;;;3.50;;
18875;SDS011;9570;50.854;13.778;2023-08-30T03:28:33;4.50;;;4.10;;
18875;SDS011;9570;50.854;13.778;2023-08-30T03:30:58;4.10;;;3.60;;
18875;SDS011;9570;50.854;13.778;2023-08-30T03:33:24;5.00;;;3.80;;
18875;SDS011;9570;50.854;13.778;2023-08-30T03:35:49;5.57;;;3.50;;
18875;SDS011;9570;50.854;13.778;2023-08-30T03:38:15;5.10;;;3.80;;
18875;SDS011;9570;50.854;13.778;2023-08-30T03:40:40;4.43;;;3.60;;
18875;SDS011;9570;50.854;13.778;2023-08-30T03:43:06;4.53;;;3.80;;
18875;SDS011;9570;50.854;13.778;2023-08-30T03:45:34;4.87;;;3.53;;
18875;SDS011;9570;50.854;13.778;2023-08-30T03:48:00;6.27;;;4.20;;
18875;SDS011;9570;50.854;13.778;2023-08-30T03:50:26;5.17;;;3.87;;
18875;SDS011;9570;50.854;13.778;2023-08-30T03:52:51;4.57;;;4.10;;
18875;SDS011;9570;50.854;13.778;2023-08-30T03:55:17;4.60;;;4.20;;
18875;SDS011;9570;50.854;13.778;2023-08-30T03:57:42;5.17;;;4.30;;
18875;SDS011;9570;50.854;13.778;2023-08-30T04:00:08;4.37;;;3.97;;
18875;SDS011;9570;50.854;13.778;2023-08-30T04:02:35;4.47;;;3.97;;
18875;SDS011;9570;50.854;13.778;2023-08-30T04:05:01;4.40;;;3.80;;
18875;SDS011;9570;50.854;13.778;2023-08-30T04:07:28;4.87;;;4.33;;
18875;SDS011;9570;50.854;13.778;2023-08-30T04:09:53;5.43;;;4.43;;
18875;SDS011;9570;50.854;13.778;2023-08-30T04:12:19;4.70;;;4.20;;
18875;SDS011;9570;50.854;13.778;2023-08-30T04:14:44;5.57;;;4.47;;
18875;SDS011;9570;50.854;13.778;2023-08-30T04:17:10;4.23;;;3.83;;
18875;SDS011;9570;50.854;13.778;2023-08-30T04:19:35;6.03;;;3.90;;
18875;SDS011;9570;50.854;13.778;2023-08-30T04:22:01;4.97;;;4.10;;
18875;SDS011;9570;50.854;13.778;2023-08-30T04:24:26;4.47;;;4.07;;
18875;SDS011;9570;50.854;13.778;2023-08-30T04:26:52;4.73;;;3.97;;
18875;SDS011;9570;50.854;13.778;2023-08-30T04:29:19;4.87;;;3.57;;
18875;SDS011;9570;50.854;13.778;2023-08-30T04:31:45;5.63;;;3.90;;
18875;SDS011;9570;50.854;13.778;2023-08-30T04:34:10;5.03;;;4.10;;
18875;SDS011;9570;50.854;13.778;2023-08-30T04:36:36;4.37;;;3.73;;
18875;SDS011;9570;50.854;13.778;2023-08-30T04:39:01;4.40;;;3.60;;
18875;SDS011;9570;50.854;13.778;2023-08-30T04:41:27;5.20;;;3.87;;
18875;SDS011;9570;50.854;13.778;2023-08-30T04:43:52;6.00;;;3.83;;
18875;SDS011;9570;50.854;13.778;2023-08-30T04:46:18;4.40;;;3.73;;
18875;SDS011;9570;50.854;13.778;2023-08-30T04:48:43;4.93;;;3.20;;
18875;SDS011;9570;50.854;13.778;2023-08-30T04:51:09;4.60;;;3.70;;
18875;SDS011;9570;50.854;13.778;2023-08-30T04:53:34;4.63;;;3.73;;
18875;SDS011;9570;50.854;13.778;2023-08-30T04:56:00;4.30;;;3.87;;
18875;SDS011;9570;50.854;13.778;2023-08-30T04:58:25;6.73;;;3.70;;
18875;SDS011;9570;50.854;13.778;2023-08-30T05:00:51;5.57;;;3.67;;
18875;SDS011;9570;50.854;13.778;2023-08-30T05:03:16;4.23;;;3.83;;
18875;SDS011;9570;50.854;13.778;2023-08-30T05:05:45;7.73;;;4.03;;
18875;SDS011;9570;50.854;13.778;2023-08-30T05:08:11;7.53;;;4.43;;
18875;SDS011;9570;50.854;13.778;2023-08-30T05:10:37;5.23;;;3.90;;
18875;SDS011;9570;50.854;13.778;2023-08-30T05:13:02;4.83;;;3.70;;
18875;SDS011;9570;50.854;13.778;2023-08-30T05:15:28;4.23;;;3.83;;
18875;SDS011;9570;50.854;13.778;2023-08-30T05:17:54;4.53;;;4.07;;
18875;SDS011;9570;50.854;13.778;2023-08-30T05:20:19;4.33;;;3.93;;
18875;SDS011;9570;50.854;13.778;2023-08-30T05:22:45;6.13;;;4.20;;
18875;SDS011;9570;50.854;13.778;2023-08-30T05:25:10;5.87;;;3.80;;
18875;SDS011;9570;50.854;13.778;2023-08-30T05:27:36;4.53;;;4.10;;
18875;SDS011;9570;50.854;13.778;2023-08-30T05:30:02;4.60;;;4.20;;
18875;SDS011;9570;50.854;13.778;2023-08-30T05:32:28;5.80;;;4.23;;
18875;SDS011;9570;50.854;13.778;2023-08-30T05:34:53;5.67;;;4.23;;
18875;SDS011;9570;50.854;13.778;2023-08-30T05:37:19;4.93;;;4.03;;
18875;SDS011;9570;50.854;13.778;2023-08-30T05:39:45;6.13;;;4.13;;
18875;SDS011;9570;50.854;13.778;2023-08-30T05:42:10;6.03;;;4.17;;
18875;SDS011;9570;50.854;13.778;2023-08-30T05:44:36;5.93;;;4.20;;
18875;SDS011;9570;50.854;13.778;2023-08-30T05:47:01;7.40;;;4.27;;
18875;SDS011;9570;50.854;13.778;2023-08-30T05:49:27;4.27;;;3.87;;
18875;SDS011;9570;50.854;13.778;2023-08-30T05:51:52;4.73;;;4.13;;
18875;SDS011;9570;50.854;13.778;2023-08-30T05:54:18;7.17;;;4.40;;
18875;SDS011;9570;50.854;13.778;2023-08-30T05:56:43;5.47;;;4.40;;
18875;SDS011;9570;50.854;13.778;2023-08-30T05:59:09;4.70;;;4.20;;
18875;SDS011;9570;50.854;13.778;2023-08-30T06:01:34;6.03;;;4.50;;
18875;SDS011;9570;50.854;13.778;2023-08-30T06:04:00;4.60;;;4.20;;
18875;SDS011;9570;50.854;13.778;2023-08-30T06:06:25;5.10;;;4.60;;
18875;SDS011;9570;50.854;13.778;2023-08-30T06:08:52;5.40;;;4.83;;
18875;SDS011;9570;50.854;13.778;2023-08-30T06:11:17;5.23;;;4.40;;
18875;SDS011;9570;50.854;13.778;2023-08-30T06:13:43;5.03;;;4.57;;
18875;SDS011;9570;50.854;13.778;2023-08-30T06:16:09;5.43;;;4.87;;
18875;SDS011;9570;50.854;13.778;2023-08-30T06:18:34;5.03;;;4.53;;
18875;SDS011;9570;50.854;13.778;2023-08-30T06:21:02;5.73;;;4.97;;
18875;SDS011;9570;50.854;13.778;2023-08-30T06:23:29;5.43;;;4.70;;
18875;SDS011;9570;50.854;13.778;2023-08-30T06:25:55;6.33;;;5.33;;
18875;SDS011;9570;50.854;13.778;2023-08-30T06:28:21;5.77;;;5.27;;
18875;SDS011;9570;50.854;13.778;2023-08-30T06:30:47;6.57;;;5.97;;
18875;SDS011;9570;50.854;13.778;2023-08-30T06:33:13;7.73;;;6.47;;
18875;SDS011;9570;50.854;13.778;2023-08-30T06:35:38;8.00;;;7.20;;
18875;SDS011;9570;50.854;13.778;2023-08-30T06:38:04;8.53;;;7.03;;
18875;SDS011;9570;50.854;13.778;2023-08-30T06:40:30;11.77;;;8.33;;
18875;SDS011;9570;50.854;13.778;2023-08-30T06:42:55;9.43;;;8.43;;
18875;SDS011;9570;50.854;13.778;2023-08-30T06:45:22;11.37;;;10.20;;
18875;SDS011;9570;50.854;13.778;2023-08-30T06:47:48;12.37;;;10.83;;
18875;SDS011;9570;50.854;13.778;2023-08-30T06:50:14;11.87;;;9.87;;
18875;SDS011;9570;50.854;13.778;2023-08-30T06:52:40;10.87;;;9.77;;
18875;SDS011;9570;50.854;13.778;2023-08-30T06:55:05;11.80;;;9.93;;
18875;SDS011;9570;50.854;13.778;2023-08-30T06:57:31;12.80;;;11.60;;
18875;SDS011;9570;50.854;13.778;2023-08-30T06:59:57;14.07;;;12.57;;
18875;SDS011;9570;50.854;13.778;2023-08-30T07:02:24;17.00;;;13.80;;
18875;SDS011;9570;50.854;13.778;2023-08-30T07:04:50;16.77;;;14.50;;
18875;SDS011;9570;50.854;13.778;2023-08-30T07:07:16;15.07;;;13.07;;
18875;SDS011;9570;50.854;13.778;2023-08-30T07:09:41;17.57;;;15.23;;
18875;SDS011;9570;50.854;13.778;2023-08-30T07:12:07;17.40;;;15.00;;
18875;SDS011;9570;50.854;13.778;2023-08-30T07:14:32;16.50;;;14.87;;
18875;SDS011;9570;50.854;13.778;2023-08-30T07:16:58;17.50;;;15.53;;
18875;SDS011;9570;50.854;13.778;2023-08-30T07:19:24;18.03;;;15.27;;
18875;SDS011;9570;50.854;13.778;2023-08-30T07:21:50;17.97;;;15.80;;
18875;SDS011;9570;50.854;13.778;2023-08-30T07:24:15;17.93;;;16.23;;
18875;SDS011;9570;50.854;13.778;2023-08-30T07:26:41;17.17;;;15.43;;
18875;SDS011;9570;50.854;13.778;2023-08-30T07:29:08;16.00;;;14.40;;
18875;SDS011;9570;50.854;13.778;2023-08-30T07:31:34;16.60;;;14.83;;
18875;SDS011;9570;50.854;13.778;2023-08-30T07:33:59;14.83;;;13.43;;
18875;SDS011;9570;50.854;13.778;2023-08-30T07:36:26;15.10;;;13.50;;
18875;SDS011;9570;50.854;13.778;2023-08-30T07:38:53;14.50;;;13.00;;
18875;SDS011;9570;50.854;13.778;2023-08-30T07:41:18;15.00;;;13.37;;
18875;SDS011;9570;50.854;13.778;2023-08-30T07:43:44;13.60;;;12.20;;
18875;SDS011;9570;50.854;13.778;2023-08-30T07:46:09;12.57;;;11.10;;
18875;SDS011;9570;50.854;13.778;2023-08-30T07:48:35;11.40;;;10.10;;
18875;SDS011;9570;50.854;13.778;2023-08-30T07:51:00;9.23;;;8.33;;
18875;SDS011;9570;50.854;13.778;2023-08-30T07:53:26;8.97;;;8.07;;
18875;SDS011;9570;50.854;13.778;2023-08-30T07:55:51;8.17;;;7.47;;
18875;SDS011;9570;50.854;13.778;2023-08-30T07:58:17;9.47;;;6.50;;
18875;SDS011;9570;50.854;13.778;2023-08-30T08:00:43;6.67;;;6.07;;
18875;SDS011;9570;50.854;13.778;2023-08-30T08:03:08;6.73;;;5.77;;
18875;SDS011;9570;50.854;13.778;2023-08-30T08:05:35;6.43;;;5.83;;
18875;SDS011;9570;50.854;13.778;2023-08-30T08:08:02;6.13;;;5.53;;
18875;SDS011;9570;50.854;13.778;2023-08-30T08:10:28;5.60;;;5.10;;
18875;SDS011;9570;50.854;13.778;2023-08-30T08:12:56;5.80;;;5.30;;
18875;SDS011;9570;50.854;13.778;2023-08-30T08:15:22;6.93;;;5.27;;
18875;SDS011;9570;50.854;13.778;2023-08-30T08:17:47;5.13;;;4.73;;
18875;SDS011;9570;50.854;13.778;2023-08-30T08:20:14;5.57;;;4.53;;
18875;SDS011;9570;50.854;13.778;2023-08-30T08:22:40;5.00;;;4.47;;
18875;SDS011;9570;50.854;13.778;2023-08-30T08:25:05;5.37;;;4.67;;
18875;SDS011;9570;50.854;13.778;2023-08-30T08:27:34;4.80;;;4.27;;
18875;SDS011;9570;50.854;13.778;2023-08-30T08:30:01;4.70;;;4.07;;
18875;SDS011;9570;50.854;13.778;2023-08-30T08:32:28;5.17;;;3.90;;
18875;SDS011;9570;50.854;13.778;2023-08-30T08:34:55;5.97;;;4.10;;
18875;SDS011;9570;50.854;13.778;2023-08-30T08:37:21;3.83;;;3.50;;
18875;SDS011;9570;50.854;13.778;2023-08-30T08:39:46;5.87;;;3.23;;
18875;SDS011;9570;50.854;13.778;2023-08-30T08:42:17;5.33;;;3.60;;
18875;SDS011;9570;50.854;13.778;2023-08-30T08:44:46;4.20;;;3.47;;
18875;SDS011;9570;50.854;13.778;2023-08-30T08:47:15;4.20;;;3.53;;
18875;SDS011;9570;50.854;13.778;2023-08-30T08:49:42;3.23;;;2.93;;
18875;SDS011;9570;50.854;13.778;2023-08-30T08:52:08;3.83;;;3.00;;
18875;SDS011;9570;50.854;13.778;2023-08-30T08:54:34;5.17;;;2.93;;
18875;SDS011;9570;50.854;13.778;2023-08-30T08:57:01;3.50;;;3.20;;
18875;SDS011;9570;50.854;13.778;2023-08-30T08:59:27;4.53;;;3.20;;
18875;SDS011;9570;50.854;13.778;2023-08-30T09:01:53;3.90;;;3.43;;
18875;SDS011;9570;50.854;13.778;2023-08-30T09:04:18;3.63;;;3.33;;
18875;SDS011;9570;50.854;13.778;2023-08-30T09:06:44;2.87;;;2.67;;
18875;SDS011;9570;50.854;13.778;2023-08-30T09:09:10;4.47;;;3.00;;
18875;SDS011;9570;50.854;13.778;2023-08-30T09:11:36;3.77;;;3.07;;
18875;SDS011;9570;50.854;13.778;2023-08-30T09:14:02;3.10;;;2.90;;
18875;SDS011;9570;50.854;13.778;2023-08-30T09:16:28;3.70;;;3.23;;
18875;SDS011;9570;50.854;13.778;2023-08-30T09:18:59;3.80;;;3.27;;
18875;SDS011;9570;50.854;13.778;2023-08-30T09:21:25;2.97;;;2.67;;
18875;SDS011;9570;50.854;13.778;2023-08-30T09:23:58;2.47;;;2.27;;
18875;SDS011;9570;50.854;13.778;2023-08-30T09:26:23;4.20;;;2.70;;
18875;SDS011;9570;50.854;13.778;2023-08-30T09:28:49;2.97;;;2.23;;
18875;SDS011;9570;50.854;13.778;2023-08-30T09:31:18;3.03;;;2.67;;
18875;SDS011;9570;50.854;13.778;2023-08-30T09:33:47;2.70;;;2.50;;
18875;SDS011;9570;50.854;13.778;2023-08-30T09:36:16;5.67;;;3.00;;
18875;SDS011;9570;50.854;13.778;2023-08-30T09:38:47;3.73;;;2.63;;
18875;SDS011;9570;50.854;13.778;2023-08-30T09:41:14;5.33;;;2.57;;
18875;SDS011;9570;50.854;13.778;2023-08-30T09:43:43;2.30;;;2.10;;
18875;SDS011;9570;50.854;13.778;2023-08-30T09:46:09;2.80;;;2.50;;
18875;SDS011;9570;50.854;13.778;2023-08-30T09:48:35;3.23;;;2.37;;
18875;SDS011;9570;50.854;13.778;2023-08-30T09:51:03;3.00;;;2.67;;
18875;SDS011;9570;50.854;13.778;2023-08-30T09:53:35;2.87;;;2.57;;
18875;SDS011;9570;50.854;13.778;2023-08-30T09:56:08;3.43;;;2.60;;
18875;SDS011;9570;50.854;13.778;2023-08-30T09:58:36;4.13;;;2.80;;
18875;SDS011;9570;50.854;13.778;2023-08-30T10:01:03;2.60;;;2.30;;
18875;SDS011;9570;50.854;13.778;2023-08-30T10:03:30;2.73;;;2.10;;
18875;SDS011;9570;50.854;13.778;2023-08-30T10:05:56;2.93;;;2.43;;
18875;SDS011;9570;50.854;13.778;2023-08-30T10:08:23;4.37;;;2.70;;
18875;SDS011;9570;50.854;13.778;2023-08-30T10:10:54;3.30;;;2.40;;
18875;SDS011;9570;50.854;13.778;2023-08-30T10:13:22;2.63;;;2.43;;
18875;SDS011;9570;50.854;13.778;2023-08-30T10:15:48;3.90;;;2.17;;
18875;SDS011;9570;50.854;13.778;2023-08-30T10:18:19;3.20;;;2.00;;
18875;SDS011;9570;50.854;13.778;2023-08-30T10:20:46;2.97;;;1.90;;
18875;SDS011;9570;50.854;13.778;2023-08-30T10:23:12;2.70;;;1.83;;
18875;SDS011;9570;50.854;13.778;2023-08-30T10:25:40;3.23;;;1.73;;
18875;SDS011;9570;50.854;13.778;2023-08-30T10:28:07;2.60;;;1.60;;
18875;SDS011;9570;50.854;13.778;2023-08-30T10:30:33;2.03;;;1.70;;
18875;SDS011;9570;50.854;13.778;2023-08-30T10:32:59;1.50;;;1.40;;
18875;SDS011;9570;50.854;13.778;2023-08-30T10:35:24;3.90;;;1.60;;
18875;SDS011;9570;50.854;13.778;2023-08-30T10:37:53;3.17;;;1.47;;
18875;SDS011;9570;50.854;13.778;2023-08-30T10:40:21;3.77;;;1.40;;
18875;SDS011;9570;50.854;13.778;2023-08-30T10:42:47;1.90;;;1.20;;
18875;SDS011;9570;50.854;13.778;2023-08-30T10:45:23;2.60;;;1.20;;
18875;SDS011;9570;50.854;13.778;2023-08-30T10:47:53;1.83;;;1.47;;
18875;SDS011;9570;50.854;13.778;2023-08-30T10:50:26;1.57;;;1.37;;
18875;SDS011;9570;50.854;13.778;2023-08-30T10:52:56;2.00;;;1.67;;
18875;SDS011;9570;50.854;13.778;2023-08-30T10:55:23;2.50;;;1.73;;
18875;SDS011;9570;50.854;13.778;2023-08-30T10:57:57;3.30;;;1.67;;
18875;SDS011;9570;50.854;13.778;2023-08-30T11:00:24;1.93;;;1.67;;
18875;SDS011;9570;50.854;13.778;2023-08-30T11:02:52;1.57;;;1.47;;
18875;SDS011;9570;50.854;13.778;2023-08-30T11:05:21;2.03;;;1.83;;
18875;SDS011;9570;50.854;13.778;2023-08-30T11:07:48;3.03;;;1.83;;
18875;SDS011;9570;50.854;13.778;2023-08-30T11:10:15;2.83;;;1.77;;
18875;SDS011;9570;50.854;13.778;2023-08-30T11:12:45;3.33;;;2.00;;
18875;SDS011;9570;50.854;13.778;2023-08-30T11:15:11;3.20;;;1.47;;
18875;SDS011;9570;50.854;13.778;2023-08-30T11:17:41;1.43;;;1.33;;
18875;SDS011;9570;50.854;13.778;2023-08-30T11:20:08;2.20;;;1.30;;
18875;SDS011;9570;50.854;13.778;2023-08-30T11:22:45;1.50;;;1.40;;
18875;SDS011;9570;50.854;13.778;2023-08-30T11:25:12;1.40;;;1.20;;
18875;SDS011;9570;50.854;13.778;2023-08-30T11:27:39;1.83;;;1.20;;
18875;SDS011;9570;50.854;13.778;2023-08-30T11:30:06;3.23;;;1.50;;
18875;SDS011;9570;50.854;13.778;2023-08-30T11:32:33;2.30;;;1.43;;
18875;SDS011;9570;50.854;13.778;2023-08-30T11:34:59;2.90;;;1.50;;
18875;SDS011;9570;50.854;13.778;2023-08-30T11:37:26;1.97;;;1.30;;
18875;SDS011;9570;50.854;13.778;2023-08-30T11:39:52;2.90;;;1.50;;
18875;SDS011;9570;50.854;13.778;2023-08-30T11:42:18;4.63;;;1.57;;
18875;SDS011;9570;50.854;13.778;2023-08-30T11:44:44;2.53;;;1.50;;
18875;SDS011;9570;50.854;13.778;2023-08-30T11:47:10;1.40;;;1.30;;
18875;SDS011;9570;50.854;13.778;2023-08-30T11:49:36;2.10;;;1.40;;
18875;SDS011;9570;50.854;13.778;2023-08-30T11:52:04;1.70;;;1.43;;
18875;SDS011;9570;50.854;13.778;2023-08-30T11:54:29;1.50;;;1.40;;
18875;SDS011;9570;50.854;13.778;2023-08-30T11:56:55;2.27;;;1.50;;
18875;SDS011;9570;50.854;13.778;2023-08-30T11:59:21;3.07;;;1.60;;
18875;SDS011;9570;50.854;13.778;2023-08-30T12:01:48;4.97;;;1.50;;
18875;SDS011;9570;50.854;13.778;2023-08-30T12:04:14;2.90;;;1.70;;
18875;SDS011;9570;50.854;13.778;2023-08-30T12:06:40;2.67;;;1.60;;
18875;SDS011;9570;50.854;13.778;2023-08-30T12:09:11;2.07;;;1.63;;
18875;SDS011;9570;50.854;13.778;2023-08-30T12:11:37;2.50;;;1.50;;
18875;SDS011;9570;50.854;13.778;2023-08-30T12:14:02;4.57;;;1.80;;
18875;SDS011;9570;50.854;13.778;2023-08-30T12:16:28;3.63;;;1.80;;
18875;SDS011;9570;50.854;13.778;2023-08-30T12:18:53;1.50;;;1.40;;
18875;SDS011;9570;50.854;13.778;2023-08-30T12:21:20;2.17;;;1.40;;
18875;SDS011;9570;50.854;13.778;2023-08-30T12:23:45;2.97;;;1.60;;
18875;SDS011;9570;50.854;13.778;2023-08-30T12:26:11;2.33;;;1.80;;
18875;SDS011;9570;50.854;13.778;2023-08-30T12:28:37;2.00;;;1.80;;
18875;SDS011;9570;50.854;13.778;2023-08-30T12:31:04;3.47;;;1.57;;
18875;SDS011;9570;50.854;13.778;2023-08-30T12:33:30;4.70;;;1.70;;
18875;SDS011;9570;50.854;13.778;2023-08-30T12:35:56;3.10;;;1.40;;
18875;SDS011;9570;50.854;13.778;2023-08-30T12:38:23;3.07;;;1.70;;
18875;SDS011;9570;50.854;13.778;2023-08-30T12:40:56;2.70;;;1.80;;
18875;SDS011;9570;50.854;13.778;2023-08-30T12:43:22;2.83;;;1.83;;
18875;SDS011;9570;50.854;13.778;2023-08-30T12:45:49;2.17;;;1.77;;
18875;SDS011;9570;50.854;13.778;2023-08-30T12:48:15;3.00;;;1.63;;
18875;SDS011;9570;50.854;13.778;2023-08-30T12:50:46;2.90;;;2.13;;
18875;SDS011;9570;50.854;13.778;2023-08-30T12:53:12;4.57;;;2.10;;
18875;SDS011;9570;50.854;13.778;2023-08-30T12:55:38;1.60;;;1.50;;
18875;SDS011;9570;50.854;13.778;2023-08-30T12:58:05;2.80;;;1.50;;
18875;SDS011;9570;50.854;13.778;2023-08-30T13:00:31;2.07;;;1.53;;
18875;SDS011;9570;50.854;13.778;2023-08-30T13:02:58;2.00;;;1.50;;
18875;SDS011;9570;50.854;13.778;2023-08-30T13:05:23;4.17;;;1.50;;
18875;SDS011;9570;50.854;13.778;2023-08-30T13:07:49;2.97;;;1.53;;
18875;SDS011;9570;50.854;13.778;2023-08-30T13:10:14;2.70;;;1.70;;
18875;SDS011;9570;50.854;13.778;2023-08-30T13:12:41;2.23;;;1.63;;
18875;SDS011;9570;50.854;13.778;2023-08-30T13:15:07;3.17;;;1.70;;
18875;SDS011;9570;50.854;13.778;2023-08-30T13:17:33;1.53;;;1.43;;
18875;SDS011;9570;50.854;13.778;2023-08-30T13:19:59;5.20;;;1.70;;
18875;SDS011;9570;50.854;13.778;2023-08-30T13:22:26;2.00;;;1.53;;
18875;SDS011;9570;50.854;13.778;2023-08-30T13:24:51;1.93;;;1.43;;
18875;SDS011;9570;50.854;13.778;2023-08-30T13:27:17;2.13;;;1.60;;
18875;SDS011;9570;50.854;13.778;2023-08-30T13:29:43;2.43;;;1.80;;
18875;SDS011;9570;50.854;13.778;2023-08-30T13:32:09;1.93;;;1.70;;
18875;SDS011;9570;50.854;13.778;2023-08-30T13:34:34;1.77;;;1.57;;
18875;SDS011;9570;50.854;13.778;2023-08-30T13:37:00;3.33;;;1.80;;
18875;SDS011;9570;50.854;13.778;2023-08-30T13:39:25;3.17;;;1.60;;
18875;SDS011;9570;50.854;13.778;2023-08-30T13:41:51;5.70;;;2.10;;
18875;SDS011;9570;50.854;13.778;2023-08-30T13:44:16;2.70;;;1.50;;
18875;SDS011;9570;50.854;13.778;2023-08-30T13:46:43;2.03;;;1.80;;
18875;SDS011;9570;50.854;13.778;2023-08-30T13:49:09;3.53;;;1.97;;
18875;SDS011;9570;50.854;13.778;2023-08-30T13:51:34;2.23;;;1.60;;
18875;SDS011;9570;50.854;13.778;2023-08-30T13:54:00;2.80;;;1.87;;
18875;SDS011;9570;50.854;13.778;2023-08-30T13:56:25;1.87;;;1.67;;
18875;SDS011;9570;50.854;13.778;2023-08-30T13:58:51;3.53;;;1.50;;
18875;SDS011;9570;50.854;13.778;2023-08-30T14:01:16;3.03;;;1.67;;
18875;SDS011;9570;50.854;13.778;2023-08-30T14:03:42;2.93;;;1.67;;
18875;SDS011;9570;50.854;13.778;2023-08-30T14:06:08;3.07;;;1.70;;
18875;SDS011;9570;50.854;13.778;2023-08-30T14:08:34;2.20;;;1.70;;
18875;SDS011;9570;50.854;13.778;2023-08-30T14:11:00;2.40;;;1.60;;
18875;SDS011;9570;50.854;13.778;2023-08-30T14:13:26;2.33;;;1.50;;
18875;SDS011;9570;50.854;13.778;2023-08-30T14:15:57;3.80;;;1.73;;
18875;SDS011;9570;50.854;13.778;2023-08-30T14:18:23;1.60;;;1.43;;
18875;SDS011;9570;50.854;13.778;2023-08-30T14:20:48;2.33;;;1.50;;
18875;SDS011;9570;50.854;13.778;2023-08-30T14:23:14;3.23;;;1.80;;
18875;SDS011;9570;50.854;13.778;2023-08-30T14:25:39;1.83;;;1.60;;
18875;SDS011;9570;50.854;13.778;2023-08-30T14:28:05;3.47;;;1.60;;
18875;SDS011;9570;50.854;13.778;2023-08-30T14:30:30;4.77;;;1.80;;
18875;SDS011;9570;50.854;13.778;2023-08-30T14:32:56;3.00;;;1.63;;
18875;SDS011;9570;50.854;13.778;2023-08-30T14:35:21;2.07;;;1.50;;
18875;SDS011;9570;50.854;13.778;2023-08-30T14:37:49;2.43;;;1.53;;
18875;SDS011;9570;50.854;13.778;2023-08-30T14:40:15;2.63;;;1.43;;
18875;SDS011;9570;50.854;13.778;2023-08-30T14:42:41;4.27;;;1.50;;
18875;SDS011;9570;50.854;13.778;2023-08-30T14:45:07;2.30;;;1.60;;